Time;durP1;ratioP1;P1;durP2;ratioP2;P2;SDS_P1;SDS_P2;PMS_P1;PMS_P2;Temp;Humidity;BMP_temperature;BMP_pressure;BME280_temperature;BME280_humidity;BME280_pressure;Samples;Min_cycle;Max_cycle;Signal;HPM_P1;HPM_P2
2021/12/10 00:02:10;;;;;;;;;55.00;40.00;;;;;6.42;49.37;97498.56;6182429;28;97478;-66
2021/12/10 00:05:15;;;;;;;;;55.00;43.00;;;;;6.47;49.00;97492.53;6187755;28;97169;-62
2021/12/10 00:08:20;;;;;;;;;54.40;41.00;;;;;6.48;49.15;97496.84;6202205;28;96874;-64
2021/12/10 00:11:26;;;;;;;;;57.20;42.00;;;;;6.51;49.10;97493.69;6182057;28;100190;-64
2021/12/10 00:14:31;;;;;;;;;52.00;39.00;;;;;6.50;48.91;97497.41;6183668;28;97178;-63
2021/12/10 00:17:36;;;;;;;;;52.67;40.00;;;;;6.51;48.99;97496.38;6189122;28;97144;-64
2021/12/10 00:20:42;;;;;;;;;55.00;41.00;;;;;6.46;49.15;97480.19;6189137;28;96401;-65
2021/12/10 00:23:48;;;;;;;;;57.00;42.00;;;;;6.40;49.19;97489.16;6181693;28;97057;-64
2021/12/10 00:26:52;;;;;;;;;53.00;40.40;;;;;6.33;49.33;97483.06;6189164;28;96567;-64
2021/12/10 00:30:04;;;;;;;;;57.00;41.00;;;;;6.33;49.35;97475.84;6189272;28;96405;-63
2021/12/10 00:33:20;;;;;;;;;53.00;42.00;;;;;6.30;49.44;97483.53;6179013;28;99855;-65
2021/12/10 00:36:24;;;;;;;;;54.60;42.00;;;;;6.33;49.35;97470.50;6187173;28;97470;-63
2021/12/10 00:39:31;;;;;;;;;52.00;41.00;;;;;6.28;49.39;97472.22;6186086;28;97446;-63
2021/12/10 00:42:36;;;;;;;;;54.00;40.20;;;;;6.29;49.54;97471.19;6171254;28;96690;-66
2021/12/10 00:45:40;;;;;;;;;54.00;42.80;;;;;6.31;49.45;97475.25;6186860;28;96942;-64
2021/12/10 00:48:44;;;;;;;;;50.25;39.50;;;;;6.26;49.42;97471.63;6187043;28;97595;-65
2021/12/10 00:51:48;;;;;;;;;53.40;42.00;;;;;6.23;49.57;97443.47;6181741;28;97662;-63
2021/12/10 00:54:52;;;;;;;;;53.80;40.60;;;;;6.32;49.44;97443.97;6185100;28;96751;-66
2021/12/10 00:57:56;;;;;;;;;56.20;41.00;;;;;6.37;49.38;97444.91;6163391;28;97475;-63
2021/12/10 01:01:05;;;;;;;;;55.40;42.00;;;;;6.30;49.17;97438.84;6161066;28;97122;-64
2021/12/10 01:04:15;;;;;;;;;53.40;41.20;;;;;6.31;49.43;97431.63;6164433;28;97138;-64
2021/12/10 01:07:23;;;;;;;;;54.25;41.25;;;;;6.32;48.82;97443.97;6163686;28;97517;-62
2021/12/10 01:10:29;;;;;;;;;55.60;42.40;;;;;6.20;49.75;97449.31;6169598;28;97388;-65
2021/12/10 01:13:35;;;;;;;;;54.00;41.25;;;;;6.19;49.63;97450.34;6177678;28;96947;-64
2021/12/10 01:23:49;;;;;;;;;52.80;41.60;;;;;6.20;49.57;97437.78;6180243;28;96754;-63
2021/12/10 01:26:59;;;;;;;;;57.00;42.80;;;;;6.34;49.43;97450.72;6178611;28;96513;-64
2021/12/10 01:30:10;;;;;;;;;52.25;41.00;;;;;6.34;49.39;97463.28;6187251;28;97460;-63
2021/12/10 01:33:19;;;;;;;;;53.25;41.50;;;;;6.30;49.51;97467.47;6178186;28;99852;-62
2021/12/10 01:36:24;;;;;;;;;59.25;42.50;;;;;6.30;49.70;97467.47;6188338;28;97418;-64
2021/12/10 01:39:30;;;;;;;;;50.00;39.80;;;;;6.25;49.70;97460.13;6187788;28;97427;-65
2021/12/10 01:42:41;;;;;;;;;55.25;39.50;;;;;6.26;49.76;97460.94;6177180;28;97595;-62
2021/12/10 01:45:47;;;;;;;;;54.40;42.00;;;;;6.35;49.67;97472.97;6188112;28;96900;-65
2021/12/10 01:48:54;;;;;;;;;51.50;41.00;;;;;6.41;49.78;97467.50;6187826;28;96559;-64
2021/12/10 01:52:00;;;;;;;;;56.00;42.00;;;;;6.51;49.49;97458.88;6180832;28;97615;-64
2021/12/10 01:55:06;;;;;;;;;57.40;43.40;;;;;6.53;49.42;97454.13;6197616;28;97493;-62
2021/12/10 01:58:12;;;;;;;;;57.00;42.20;;;;;6.57;49.34;97465.19;6202408;28;97087;-63
2021/12/10 02:01:22;;;;;;;;;58.00;42.80;;;;;6.62;49.33;97476.84;6183748;28;98003;-62
2021/12/10 02:04:29;;;;;;;;;55.00;42.00;;;;;6.65;49.14;97480.91;6180084;28;97014;-62
2021/12/10 02:07:34;;;;;;;;;56.40;44.00;;;;;6.66;49.31;97464.63;6187425;28;97095;-64
2021/12/10 02:10:37;;;;;;;;;58.00;43.00;;;;;6.67;49.34;97476.16;6186997;28;97104;-64
2021/12/10 02:13:41;;;;;;;;;57.80;44.00;;;;;6.70;49.38;97467.63;6164236;28;97597;-62
2021/12/10 02:16:45;;;;;;;;;56.75;43.75;;;;;6.71;49.04;97470.09;6175707;28;96638;-64
2021/12/10 02:19:48;;;;;;;;;56.50;43.00;;;;;6.70;49.29;97452.38;6184818;28;97063;-64
2021/12/10 02:22:54;;;;;;;;;58.00;41.00;;;;;6.73;49.51;97445.78;6174652;28;97267;-65
2021/12/10 02:25:57;;;;;;;;;54.00;42.00;;;;;6.75;49.33;97440.97;6185393;28;96879;-62
2021/12/10 02:29:01;;;;;;;;;58.00;43.00;;;;;6.75;49.53;97439.13;6186035;28;97518;-66
2021/12/10 02:32:09;;;;;;;;;57.40;43.60;;;;;6.78;49.36;97429.81;6178307;28;96915;-64
2021/12/10 02:35:14;;;;;;;;;53.00;41.00;;;;;6.77;49.34;97420.16;6160391;28;96536;-63
2021/12/10 02:38:22;;;;;;;;;53.00;41.60;;;;;6.76;49.43;97418.50;6185288;28;96585;-61
2021/12/10 02:41:28;;;;;;;;;57.80;43.00;;;;;6.77;49.46;97423.66;6181994;28;96400;-63
2021/12/10 02:44:33;;;;;;;;;56.20;42.80;;;;;6.80;49.25;97417.81;6174830;28;97499;-65
2021/12/10 02:47:37;;;;;;;;;58.00;43.00;;;;;6.79;49.34;97410.81;6168522;28;96689;-65
2021/12/10 02:50:43;;;;;;;;;55.00;42.60;;;;;6.79;49.28;97410.81;6186118;28;97053;-64
2021/12/10 02:53:48;;;;;;;;;55.40;42.00;;;;;6.82;49.08;97413.06;6175476;28;96844;-63
2021/12/10 02:56:52;;;;;;;;;59.00;43.00;;;;;6.85;49.22;97412.56;6186694;28;97445;-64
2021/12/10 02:59:55;;;;;;;;;55.50;42.75;;;;;6.84;49.04;97412.81;6186470;28;96402;-63
2021/12/10 03:02:59;;;;;;;;;56.60;42.00;;;;;6.86;49.03;97410.72;6163291;28;96749;-64
2021/12/10 03:06:08;;;;;;;;;56.50;41.00;;;;;6.78;49.21;97422.59;6176663;28;97605;-63
2021/12/10 03:09:14;;;;;;;;;53.00;41.00;;;;;6.73;49.41;97410.97;6186377;28;96453;-65
2021/12/10 03:12:18;;;;;;;;;54.75;41.00;;;;;6.69;49.39;97407.13;6177080;28;96893;-63
2021/12/10 03:15:24;;;;;;;;;57.00;40.00;;;;;6.60;49.78;97413.88;6203620;28;97275;-63
2021/12/10 03:18:28;;;;;;;;;55.00;42.00;;;;;6.57;49.69;97419.66;6211074;28;96494;-64
2021/12/10 03:21:32;;;;;;;;;51.20;41.00;;;;;6.55;49.68;97433.28;6196908;28;97140;-65
2021/12/10 03:24:37;;;;;;;;;54.25;40.00;;;;;6.52;49.92;97433.75;6184699;28;97451;-63
2021/12/10 03:27:42;;;;;;;;;54.40;41.40;;;;;6.48;50.00;97437.94;6190054;28;97653;-65
2021/12/10 03:30:49;;;;;;;;;53.00;41.00;;;;;6.52;50.00;97429.22;6190679;28;97363;-65
2021/12/10 03:33:54;;;;;;;;;57.75;41.75;;;;;6.55;49.94;97427.94;6180249;28;97407;-65
2021/12/10 03:36:59;;;;;;;;;57.60;43.00;;;;;6.58;49.93;97430.16;6189326;28;96391;-65
2021/12/10 03:40:07;;;;;;;;;55.00;41.40;;;;;6.57;49.96;97435.75;6189628;28;96670;-65
2021/12/10 03:43:10;;;;;;;;;53.00;41.00;;;;;6.53;49.85;97420.16;6172947;28;96724;-64
2021/12/10 03:46:17;;;;;;;;;55.00;41.40;;;;;6.55;50.06;97430.59;6189725;28;96479;-63
2021/12/10 03:49:21;;;;;;;;;55.60;41.60;;;;;6.57;49.89;97433.88;6189779;28;97127;-63
2021/12/10 03:52:25;;;;;;;;;58.50;42.50;;;;;6.58;49.89;97438.19;6164222;28;96888;-65
2021/12/10 03:55:30;;;;;;;;;52.00;40.00;;;;;6.57;50.11;97446.44;6187585;28;97145;-63
2021/12/10 03:58:34;;;;;;;;;53.50;41.25;;;;;6.47;49.84;97447.84;6169651;28;97687;-63
2021/12/10 04:01:41;;;;;;;;;55.60;40.40;;;;;6.46;50.11;97442.69;6184168;28;97987;-65
2021/12/10 04:04:50;;;;;;;;;54.00;42.00;;;;;6.51;49.96;97449.00;6185403;28;98808;-65
2021/12/10 04:07:55;;;;;;;;;51.20;40.40;;;;;6.50;49.89;97451.91;6186922;28;97494;-65
2021/12/10 04:11:00;;;;;;;;;56.80;41.80;;;;;6.52;49.87;97445.28;6187931;28;97445;-63
2021/12/10 04:14:05;;;;;;;;;54.50;40.00;;;;;6.56;49.67;97440.28;6180304;28;97565;-65
2021/12/10 04:17:09;;;;;;;;;53.60;41.00;;;;;6.59;49.73;97447.03;6188524;28;97530;-62
2021/12/10 04:20:13;;;;;;;;;53.00;41.60;;;;;6.59;49.65;97444.38;6188315;28;96953;-64
2021/12/10 04:23:19;;;;;;;;;54.00;41.00;;;;;6.57;49.74;97447.25;6177557;28;96805;-65
2021/12/10 04:26:27;;;;;;;;;57.80;44.00;;;;;6.57;49.60;97447.25;6188857;28;97266;-62
2021/12/10 04:29:30;;;;;;;;;54.25;41.00;;;;;6.58;49.59;97442.72;6188446;28;96464;-65
2021/12/10 04:32:34;;;;;;;;;58.00;43.40;;;;;6.58;49.37;97450.75;6175693;28;97177;-62
2021/12/10 04:35:38;;;;;;;;;57.00;42.60;;;;;6.61;49.39;97445.75;6188126;28;96439;-63
2021/12/10 04:38:42;;;;;;;;;61.25;45.00;;;;;6.67;49.37;97444.84;6186936;28;97330;-63
2021/12/10 04:41:47;;;;;;;;;60.00;44.00;;;;;6.69;49.28;97442.75;6179780;28;97502;-62
2021/12/10 04:44:55;;;;;;;;;58.75;45.00;;;;;6.70;49.43;97455.06;6178970;28;97029;-64
2021/12/10 04:47:58;;;;;;;;;58.00;44.00;;;;;6.66;49.39;97453.09;6152685;28;96685;-65
2021/12/10 04:51:01;;;;;;;;;57.20;44.00;;;;;6.66;49.58;97463.78;6167778;28;97288;-65
2021/12/10 04:54:07;;;;;;;;;63.00;46.00;;;;;6.64;49.54;97455.19;6181462;28;98357;-63
2021/12/10 04:57:13;;;;;;;;;61.40;45.00;;;;;6.69;49.48;97461.50;6185405;28;99295;-64
2021/12/10 05:00:20;;;;;;;;;63.40;45.20;;;;;6.69;49.23;97474.06;6186843;28;97022;-64
2021/12/10 05:03:23;;;;;;;;;61.00;45.25;;;;;6.66;49.65;97475.31;6168906;28;97300;-64
2021/12/10 05:06:27;;;;;;;;;60.40;44.00;;;;;6.62;49.69;97468.00;6181256;28;97479;-64
2021/12/10 05:09:30;;;;;;;;;61.80;47.20;;;;;6.61;49.62;97469.84;6154520;28;98241;-64
2021/12/10 05:12:35;;;;;;;;;60.00;44.50;;;;;6.65;49.73;97468.34;6165179;28;96759;-65
2021/12/10 05:15:40;;;;;;;;;61.00;46.00;;;;;6.69;49.51;97469.53;6193642;28;96574;-64
2021/12/10 05:18:48;;;;;;;;;63.80;47.00;;;;;6.66;49.50;97458.44;6175135;28;96730;-65
2021/12/10 05:21:52;;;;;;;;;61.00;45.00;;;;;6.56;49.92;97461.69;6169104;28;97379;-65
2021/12/10 05:24:55;;;;;;;;;62.60;46.60;;;;;6.61;49.69;97456.47;6183526;28;98093;-64
2021/12/10 05:28:02;;;;;;;;;63.25;48.00;;;;;6.60;49.96;97452.16;6183920;28;96890;-64
2021/12/10 05:31:06;;;;;;;;;61.00;45.40;;;;;6.51;49.91;97443.66;6182329;28;97173;-65
2021/12/10 05:34:11;;;;;;;;;63.80;46.20;;;;;6.58;49.83;97448.91;6174328;28;98391;-64
2021/12/10 05:37:14;;;;;;;;;61.40;47.00;;;;;6.55;49.97;97438.63;6186665;28;97485;-64
2021/12/10 05:40:18;;;;;;;;;62.80;46.60;;;;;6.58;49.89;97432.84;6184160;28;96697;-65
2021/12/10 05:43:23;;;;;;;;;61.00;46.00;;;;;6.45;50.12;97438.41;6146006;28;99601;-64
2021/12/10 05:46:27;;;;;;;;;61.00;46.00;;;;;6.42;50.11;97434.31;6159505;28;97327;-64
2021/12/10 05:49:30;;;;;;;;;62.00;47.00;;;;;6.59;49.82;97447.03;6159956;28;96865;-64
2021/12/10 05:52:34;;;;;;;;;61.60;45.00;;;;;6.51;50.18;97450.84;6138846;28;99894;-63
2021/12/10 05:55:39;;;;;;;;;60.60;46.00;;;;;6.55;49.98;97441.31;6159617;28;97461;-64
2021/12/10 05:58:43;;;;;;;;;62.00;48.00;;;;;6.32;50.51;97433.25;6161085;28;96578;-64
2021/12/10 06:01:50;;;;;;;;;62.40;48.00;;;;;6.47;50.44;97447.03;6152585;28;97491;-65
2021/12/10 06:04:54;;;;;;;;;62.00;47.40;;;;;6.53;50.35;97449.59;6152244;28;96833;-64
2021/12/10 06:07:57;;;;;;;;;61.40;47.00;;;;;6.59;50.34;97449.72;6161229;28;97446;-65
2021/12/10 06:11:02;;;;;;;;;60.40;46.00;;;;;6.57;50.29;97454.47;6156866;28;96862;-65
2021/12/10 06:14:09;;;;;;;;;64.40;47.40;;;;;6.58;50.29;97466.81;6154788;28;97585;-64
2021/12/10 06:17:12;;;;;;;;;60.00;46.00;;;;;6.63;50.28;97458.91;6158547;28;96579;-64
2021/12/10 06:20:21;;;;;;;;;66.00;49.40;;;;;6.68;50.05;97467.91;6160571;28;97291;-64
2021/12/10 06:23:24;;;;;;;;;64.00;48.00;;;;;6.67;50.05;97479.66;6148383;28;97857;-65
2021/12/10 06:26:28;;;;;;;;;63.00;47.20;;;;;6.76;49.92;97475.56;6160795;28;99826;-64
2021/12/10 06:29:33;;;;;;;;;64.00;48.00;;;;;6.84;49.80;97479.78;6159637;28;96870;-64
2021/12/10 06:32:36;;;;;;;;;64.40;48.00;;;;;6.87;49.65;97490.84;6149230;28;97529;-65
2021/12/10 06:35:43;;;;;;;;;65.00;48.00;;;;;6.90;49.57;97481.50;6137535;28;97067;-65
2021/12/10 06:38:47;;;;;;;;;63.60;47.00;;;;;6.86;49.55;97477.69;6134778;28;98475;-63
2021/12/10 06:41:53;;;;;;;;;66.20;49.00;;;;;6.90;49.59;97485.00;6136205;28;96745;-65
2021/12/10 06:44:58;;;;;;;;;64.25;47.25;;;;;6.93;49.69;97478.38;6154954;28;97231;-64
2021/12/10 06:48:06;;;;;;;;;65.20;48.60;;;;;7.02;49.48;97470.81;6159151;28;97705;-64
2021/12/10 06:51:12;;;;;;;;;66.40;48.00;;;;;7.05;49.47;97473.00;6131021;28;96681;-65
2021/12/10 06:54:15;;;;;;;;;65.80;49.00;;;;;7.09;49.34;97468.81;6153306;28;97398;-65
2021/12/10 06:57:19;;;;;;;;;63.50;47.25;;;;;7.13;49.20;97467.31;6161064;28;96424;-65
2021/12/10 07:00:28;;;;;;;;;64.00;48.00;;;;;7.10;49.26;97463.22;6146360;28;97267;-64
2021/12/10 07:03:31;;;;;;;;;63.00;48.00;;;;;7.09;49.36;97472.31;6153378;28;97261;-64
2021/12/10 07:06:35;;;;;;;;;65.00;50.00;;;;;7.09;49.44;97472.31;6162387;28;97497;-64
2021/12/10 07:09:39;;;;;;;;;66.40;50.00;;;;;7.19;49.49;97469.03;6164797;28;97115;-63
2021/12/10 07:12:46;;;;;;;;;65.60;48.00;;;;;7.10;48.99;97446.34;6148697;28;97445;-63
2021/12/10 07:15:52;;;;;;;;;70.00;50.00;;;;;7.35;48.79;97457.59;6161610;28;96904;-64
2021/12/10 07:18:58;;;;;;;;;67.50;50.00;;;;;7.47;48.39;97466.47;6155487;28;96503;-64
2021/12/10 07:22:01;;;;;;;;;65.80;49.20;;;;;7.55;48.06;97467.94;6138517;28;97802;-64
2021/12/10 07:25:06;;;;;;;;;63.50;48.00;;;;;7.56;48.11;97470.41;6159855;28;96726;-64
2021/12/10 07:28:10;;;;;;;;;67.40;50.00;;;;;7.67;47.68;97466.06;6144335;28;97730;-66
2021/12/10 07:31:16;;;;;;;;;64.50;49.00;;;;;7.79;47.67;97466.81;6158901;28;98083;-63
2021/12/10 07:34:20;;;;;;;;;66.40;49.20;;;;;8.14;47.17;97469.38;6126950;28;97790;-64
2021/12/10 07:37:23;;;;;;;;;67.00;49.00;;;;;8.92;45.66;97474.78;6158694;28;97151;-64
2021/12/10 07:40:29;;;;;;;;;66.40;49.40;;;;;9.96;43.58;97486.41;6162559;28;97440;-65
2021/12/10 07:43:33;;;;;;;;;69.80;51.20;;;;;10.88;41.72;97498.13;6155925;28;97144;-64
2021/12/10 07:46:39;;;;;;;;;69.00;50.40;;;;;11.61;40.08;97484.59;6164065;28;96496;-64
2021/12/10 07:49:44;;;;;;;;;68.20;51.00;;;;;11.55;40.06;97485.63;6164565;28;96392;-64
2021/12/10 07:52:50;;;;;;;;;65.00;50.00;;;;;12.00;39.31;97484.25;6155925;28;97111;-65
2021/12/10 07:55:55;;;;;;;;;66.00;48.00;;;;;12.15;38.51;97476.19;6148428;28;97578;-65
2021/12/10 07:59:00;;;;;;;;;62.00;47.20;;;;;12.02;38.28;97480.19;6130404;28;98012;-64
2021/12/10 08:02:05;;;;;;;;;66.50;48.00;;;;;12.73;37.47;97495.75;6158141;28;99897;-65
2021/12/10 08:05:10;;;;;;;;;65.00;48.20;;;;;13.22;36.69;97494.16;6142197;28;97318;-65
2021/12/10 08:08:14;;;;;;;;;63.40;47.60;;;;;13.63;36.02;97497.63;6162682;28;97486;-66
2021/12/10 08:11:18;;;;;;;;;65.50;50.00;;;;;14.03;35.50;97496.66;6159424;28;96776;-66
2021/12/10 08:14:22;;;;;;;;;67.40;49.20;;;;;14.21;34.82;97497.94;6157240;28;97155;-65
2021/12/10 08:17:27;;;;;;;;;65.60;49.40;;;;;14.46;34.03;97503.25;6164562;28;97035;-65
2021/12/10 08:20:31;;;;;;;;;64.20;48.60;;;;;14.65;33.87;97503.41;6163403;28;96790;-66
2021/12/10 08:23:36;;;;;;;;;65.00;49.25;;;;;14.93;33.53;97505.38;6153437;28;96857;-66
2021/12/10 08:26:39;;;;;;;;;63.00;48.00;;;;;15.21;33.09;97511.94;6163575;28;97452;-66
2021/12/10 08:29:44;;;;;;;;;64.00;50.00;;;;;15.42;32.55;97490.84;6162313;28;97439;-66
2021/12/10 08:32:50;;;;;;;;;64.00;48.00;;;;;15.86;31.95;97513.22;6153271;28;97482;-66
2021/12/10 08:35:58;;;;;;;;;67.00;49.40;;;;;16.17;31.74;97519.13;6150852;28;97843;-65
2021/12/10 08:39:04;;;;;;;;;65.00;49.60;;;;;15.79;31.79;97523.63;6162243;28;96963;-64
2021/12/10 08:42:08;;;;;;;;;69.00;50.00;;;;;15.82;32.00;97522.25;6153627;28;97437;-65
2021/12/10 08:45:11;;;;;;;;;67.80;50.00;;;;;15.88;31.80;97527.31;6184767;28;97099;-64
2021/12/10 08:48:16;;;;;;;;;64.00;50.00;;;;;15.83;31.95;97511.06;6186029;28;96777;-64
2021/12/10 08:51:23;;;;;;;;;67.00;50.60;;;;;15.87;32.03;97503.97;6182459;28;97929;-65
2021/12/10 08:54:29;;;;;;;;;62.60;48.00;;;;;16.39;31.40;97511.22;6180366;28;96973;-65
2021/12/10 08:57:33;;;;;;;;;67.40;51.80;;;;;16.96;30.48;97511.25;6183369;28;96451;-66
2021/12/10 09:00:38;;;;;;;;;68.00;52.00;;;;;17.24;29.84;97511.06;6187729;28;96929;-65
2021/12/10 09:03:48;;;;;;;;;67.67;51.00;;;;;17.67;29.44;97506.25;6175647;28;96944;-66
2021/12/10 09:06:56;;;;;;;;;65.00;51.00;;;;;17.94;28.78;97515.53;6188071;28;98091;-65
2021/12/10 09:09:59;;;;;;;;;67.00;50.00;;;;;18.07;29.19;97518.28;6188586;28;97351;-66
2021/12/10 09:13:04;;;;;;;;;64.75;48.50;;;;;18.38;28.62;97512.19;6170524;28;97518;-66
2021/12/10 09:16:17;;;;;;;;;62.00;47.00;;;;;18.64;28.20;97505.09;6162264;28;96551;-65
2021/12/10 09:19:21;;;;;;;;;62.00;48.00;;;;;18.90;27.58;97508.06;6162175;28;98026;-66
2021/12/10 09:22:27;;;;;;;;;65.40;50.00;;;;;18.16;28.21;97512.94;6140933;28;97610;-65
2021/12/10 09:25:31;;;;;;;;;61.00;47.00;;;;;17.10;29.43;97465.81;6188821;28;96733;-65
2021/12/10 09:28:36;;;;;;;;;64.00;49.00;;;;;16.61;30.46;97499.00;6164737;28;97530;-65
2021/12/10 09:31:42;;;;;;;;;65.40;48.00;;;;;15.94;31.27;97500.91;6178502;28;97465;-67
2021/12/10 09:34:48;;;;;;;;;62.00;48.40;;;;;15.32;32.34;97497.19;6184795;28;96432;-64
2021/12/10 09:37:51;;;;;;;;;62.00;47.33;;;;;14.78;33.07;97488.41;6185184;28;96747;-64
2021/12/10 09:40:58;;;;;;;;;63.40;49.20;;;;;14.18;33.82;97472.19;6184945;28;98113;-65
2021/12/10 09:44:03;;;;;;;;;60.00;48.00;;;;;13.60;35.02;97460.25;6172176;28;97489;-64
2021/12/10 09:47:11;;;;;;;;;65.00;49.00;;;;;13.37;35.76;97474.38;6191530;28;97562;-65
2021/12/10 09:50:17;;;;;;;;;62.00;48.00;;;;;13.18;36.19;97476.03;6195326;28;97457;-64
2021/12/10 09:53:20;;;;;;;;;67.00;47.60;;;;;13.06;36.39;97476.28;6182519;28;96775;-65
2021/12/10 09:56:25;;;;;;;;;65.60;50.00;;;;;12.97;36.51;97475.22;6189651;28;97417;-64
2021/12/10 09:59:30;;;;;;;;;66.60;50.40;;;;;12.93;37.03;97476.84;6187997;28;96718;-63
2021/12/10 10:02:34;;;;;;;;;67.40;50.40;;;;;12.84;37.15;97478.47;6161437;28;99660;-64
2021/12/10 10:05:42;;;;;;;;;62.20;48.00;;;;;12.76;37.19;97471.69;6186332;28;97318;-64
2021/12/10 10:08:47;;;;;;;;;65.80;50.20;;;;;12.63;37.45;97463.31;6178040;28;96377;-64
2021/12/10 10:12:16;;;;;;;;;63.60;49.40;;;;;12.37;37.78;97465.16;6166519;28;97255;-63
2021/12/10 10:15:23;;;;;;;;;63.60;48.00;;;;;12.13;38.51;97481.03;6184322;28;97444;-64
2021/12/10 10:18:33;;;;;;;;;66.60;50.00;;;;;11.90;39.19;97474.22;6185529;28;97441;-64
2021/12/10 10:21:42;;;;;;;;;63.40;47.00;;;;;11.67;39.75;97478.16;6162970;28;98164;-64
2021/12/10 10:24:49;;;;;;;;;63.00;49.00;;;;;11.43;40.13;97468.03;6170498;28;97930;-65
2021/12/10 10:27:52;;;;;;;;;66.50;50.00;;;;;11.39;40.65;97467.72;6181277;28;97541;-65
2021/12/10 10:31:01;;;;;;;;;67.00;50.50;;;;;11.61;40.24;97459.47;6178756;28;96793;-65
2021/12/10 10:34:07;;;;;;;;;66.00;50.00;;;;;11.67;40.46;97453.03;6182763;28;97228;-65
2021/12/10 10:37:13;;;;;;;;;64.00;48.40;;;;;11.48;40.35;97441.06;6190423;28;97441;-64
2021/12/10 10:40:20;;;;;;;;;70.00;50.00;;;;;11.49;40.67;97458.88;6190112;28;97464;-64
2021/12/10 10:43:27;;;;;;;;;67.00;52.00;;;;;11.45;40.59;97457.78;6179590;28;97820;-64
2021/12/10 10:46:31;;;;;;;;;69.20;51.00;;;;;11.36;40.91;97459.34;6190638;28;97415;-64
2021/12/10 10:49:40;;;;;;;;;69.00;50.00;;;;;11.39;41.06;97466.91;6172138;28;97184;-63
2021/12/10 10:52:48;;;;;;;;;67.67;50.00;;;;;11.35;41.16;97463.09;6176959;28;97409;-64
2021/12/10 10:55:56;;;;;;;;;66.25;50.50;;;;;11.23;41.23;97468.72;6189591;28;97414;-63
2021/12/10 10:59:12;;;;;;;;;64.00;49.50;;;;;11.18;41.59;97461.41;6189037;28;97360;-64
2021/12/10 11:02:17;;;;;;;;;64.00;50.33;;;;;11.20;41.72;97461.94;6180104;28;96998;-65
2021/12/10 11:05:23;;;;;;;;;66.40;50.00;;;;;11.30;41.65;97463.91;6191378;28;98251;-64
2021/12/10 11:08:32;;;;;;;;;65.40;50.60;;;;;11.41;41.63;97459.38;6191411;28;97030;-63
2021/12/10 11:11:41;;;;;;;;;67.00;51.00;;;;;11.52;41.92;97458.38;6183404;28;97078;-64
2021/12/10 11:14:48;;;;;;;;;63.40;50.00;;;;;11.72;41.17;97458.47;6187937;28;96849;-63
2021/12/10 11:17:54;;;;;;;;;67.00;51.00;;;;;11.87;40.66;97455.84;6187599;28;97479;-64
2021/12/10 11:20:57;;;;;;;;;67.60;50.00;;;;;12.04;40.79;97466.44;6186239;28;97011;-64
2021/12/10 11:24:16;;;;;;;;;67.00;51.00;;;;;12.26;40.06;97458.13;6181916;28;97129;-64
2021/12/10 11:27:28;;;;;;;;;71.00;52.40;;;;;12.45;39.64;97448.44;6190015;28;97478;-64
2021/12/10 11:30:32;;;;;;;;;72.00;54.00;;;;;12.36;39.83;97453.56;6172692;28;96809;-65
2021/12/10 11:33:39;;;;;;;;;66.25;52.00;;;;;12.23;39.64;97453.22;6171841;28;97542;-63
2021/12/10 11:36:50;;;;;;;;;67.00;51.00;;;;;12.43;39.96;97450.56;6170864;28;97574;-65
2021/12/10 11:39:55;;;;;;;;;71.00;55.00;;;;;12.96;39.25;97441.94;6177047;28;97090;-65
2021/12/10 11:43:04;;;;;;;;;70.00;53.00;;;;;13.39;38.38;97462.19;6175049;28;99624;-65
2021/12/10 11:46:28;;;;;;;;;70.80;53.00;;;;;13.44;37.58;97464.88;6183952;28;96624;-65
2021/12/10 11:49:38;;;;;;;;;71.00;53.00;;;;;13.36;37.92;97461.94;6172722;28;97136;-65
2021/12/10 11:52:41;;;;;;;;;69.75;52.75;;;;;13.32;38.09;97464.38;6173534;28;97545;-65
2021/12/10 11:56:01;;;;;;;;;69.00;52.00;;;;;13.23;38.17;97459.81;6196178;28;97298;-65
2021/12/10 11:59:11;;;;;;;;;70.00;51.00;;;;;13.00;37.99;97464.66;6186556;28;96960;-65
2021/12/10 12:02:16;;;;;;;;;67.80;51.00;;;;;12.81;38.53;97466.28;6168572;28;97610;-64
2021/12/10 12:05:23;;;;;;;;;68.60;52.00;;;;;12.67;38.94;97458.97;6181130;28;97483;-65
2021/12/10 12:08:27;;;;;;;;;68.00;51.60;;;;;12.52;39.47;97457.06;6165887;28;97010;-65
2021/12/10 12:11:34;;;;;;;;;74.25;53.00;;;;;12.45;39.50;97454.66;6183297;28;96531;-65
2021/12/10 12:14:40;;;;;;;;;67.60;51.00;;;;;12.33;39.89;97459.47;6183051;28;97152;-65
2021/12/10 12:17:46;;;;;;;;;73.00;54.60;;;;;12.31;40.06;97447.31;6177992;28;97310;-65
2021/12/10 12:20:52;;;;;;;;;71.20;52.80;;;;;12.14;40.30;97437.56;6172581;28;98066;-65
2021/12/10 12:27:31;;;;;;;;;73.00;55.60;;;;;11.77;40.62;97428.81;6186158;28;97479;-64
2021/12/10 12:30:59;;;;;;;;;73.00;53.25;;;;;11.60;41.04;97437.06;6186111;28;97411;-64
2021/12/10 12:34:13;;;;;;;;;68.50;52.00;;;;;11.40;41.50;97439.66;6179588;28;96871;-66
2021/12/10 12:37:19;;;;;;;;;71.80;55.00;;;;;11.31;41.83;97443.94;6188718;28;97455;-65
2021/12/10 12:40:44;;;;;;;;;72.00;56.00;;;;;11.18;41.94;97439.03;6170846;28;97321;-64
2021/12/10 12:44:10;;;;;;;;;73.00;55.00;;;;;11.10;42.39;97443.00;6176141;28;97153;-65
2021/12/10 12:47:36;;;;;;;;;74.00;57.00;;;;;10.96;42.58;97441.00;6173992;28;97377;-65
2021/12/10 12:50:42;;;;;;;;;70.60;53.20;;;;;10.88;42.91;97460.38;6173830;28;97243;-65
2021/12/10 12:53:45;;;;;;;;;72.60;55.40;;;;;10.81;43.10;97442.53;6172543;28;97502;-65
2021/12/10 12:56:52;;;;;;;;;73.60;57.40;;;;;10.69;43.24;97435.72;6185074;28;96680;-65
2021/12/10 13:00:28;;;;;;;;;69.80;53.00;;;;;10.70;43.43;97440.03;6185332;28;96637;-65
2021/12/10 13:03:36;;;;;;;;;68.40;51.00;;;;;10.63;43.61;97439.41;6171399;28;97131;-65
2021/12/10 13:07:03;;;;;;;;;70.00;52.20;;;;;10.54;43.57;97438.28;6187073;28;97144;-66
2021/12/10 13:10:17;;;;;;;;;72.20;54.00;;;;;10.54;44.07;97436.38;6167243;28;97442;-66
2021/12/10 13:13:32;;;;;;;;;72.60;55.40;;;;;10.57;44.10;97437.75;6154981;28;97931;-65
2021/12/10 13:16:43;;;;;;;;;75.00;59.00;;;;;10.55;44.09;97435.34;6187840;28;96710;-66
2021/12/10 13:19:49;;;;;;;;;72.00;53.00;;;;;10.53;44.05;97436.63;6185889;28;96666;-66
2021/12/10 13:22:55;;;;;;;;;70.40;54.20;;;;;10.48;44.30;97429.31;6173829;28;98235;-66
2021/12/10 13:26:01;;;;;;;;;72.60;52.60;;;;;10.47;44.14;97429.56;6184859;28;97508;-65
2021/12/10 13:29:05;;;;;;;;;71.80;52.80;;;;;10.40;44.34;97436.00;6186930;28;96869;-66
2021/12/10 13:32:11;;;;;;;;;71.40;56.00;;;;;10.34;44.55;97447.78;6147558;28;98912;-66
2021/12/10 13:35:16;;;;;;;;;70.40;53.00;;;;;10.28;44.67;97448.00;6185172;28;97267;-65
2021/12/10 13:38:20;;;;;;;;;72.00;55.00;;;;;10.12;44.80;97452.38;6187064;28;97343;-64
2021/12/10 13:41:28;;;;;;;;;75.00;57.00;;;;;10.02;45.08;97449.56;6176561;28;97369;-64
2021/12/10 13:44:34;;;;;;;;;70.60;53.00;;;;;9.91;45.20;97447.84;6179202;28;98038;-65
2021/12/10 13:47:49;;;;;;;;;70.50;52.00;;;;;9.75;45.61;97451.44;6186438;28;97416;-66
2021/12/10 13:50:57;;;;;;;;;71.40;51.00;;;;;9.67;45.77;97447.31;6172118;28;97143;-66
2021/12/10 13:54:05;;;;;;;;;70.80;55.00;;;;;9.62;45.81;97441.88;6176753;28;100772;-65
2021/12/10 13:57:12;;;;;;;;;72.00;52.00;;;;;9.56;45.86;97438.28;6184129;28;97493;-65
2021/12/10 14:00:17;;;;;;;;;70.20;52.00;;;;;9.47;46.25;97439.00;6186249;28;96785;-66
2021/12/10 14:03:49;;;;;;;;;69.20;52.60;;;;;9.37;46.25;97442.34;6168041;28;98588;-65
2021/12/10 14:07:07;;;;;;;;;70.00;51.20;;;;;9.27;46.63;97442.22;6182526;28;97983;-65
2021/12/10 14:10:24;;;;;;;;;70.00;53.00;;;;;8.98;46.38;97409.28;6181987;28;96680;-65
2021/12/10 14:13:30;;;;;;;;;71.80;52.00;;;;;9.12;47.13;97426.69;6174417;28;99409;-65
2021/12/10 14:16:48;;;;;;;;;71.25;52.00;;;;;9.05;47.05;97425.22;6184991;28;98071;-65
2021/12/10 14:20:18;;;;;;;;;71.25;52.50;;;;;9.03;47.41;97425.50;6184467;28;96952;-65
2021/12/10 14:23:45;;;;;;;;;69.60;52.00;;;;;8.97;47.52;97428.34;6170722;28;98216;-65
2021/12/10 14:27:15;;;;;;;;;72.00;53.00;;;;;8.87;47.84;97426.31;6176018;28;96852;-65
2021/12/10 14:30:42;;;;;;;;;72.00;53.00;;;;;8.85;47.95;97428.44;6162971;28;96830;-65
2021/12/10 14:33:49;;;;;;;;;72.20;53.80;;;;;8.80;47.98;97435.59;6172566;28;96840;-65
2021/12/10 14:37:04;;;;;;;;;71.40;54.40;;;;;8.73;48.28;97437.66;6177299;28;97403;-64